Flight Track Log - Related Links

Times and Time Zones

All times are in EDT time to prevent confusion due to time zone crossing. See the GJS3688 flight status page for this flight to view local times or setup timezone preferences in your user account.

Time Position Orientation Groundspeed Altitude Reporting Facility
EDT Latitude Longitude Course Direction KTS MPH feet Rate Location/Type
Sun 09:48:00 PM 39.8833 -104.5833 108° East 175 201 6,900  Level Denver TRACON
Sun 09:48:58 PM 39.8500 -104.5167 123° Southeast 243 280 8,200 1,576 Climbing Denver TRACON
Sun 09:49:58 PM 39.8333 -104.4167 102° East 301 346 10,000 1,878 Climbing Denver TRACON
Sun 09:50:53 PM 39.8167 -104.3167 102° East 319 367 11,800 1,556 Climbing Denver TRACON
Sun 09:51:00 PM 39.7723 -104.0862 101° East  Level FlightAware Approximate
Sun 09:52:00 PM 39.7667 -103.9395 90° East  Level FlightAware Approximate
Sun 09:52:13 PM 39.7950 -104.1789 102° East 357 411 13,500  Level Denver Center
Sun 09:53:00 PM 39.7446 -103.7952 108° East  Level FlightAware Approximate
Sun 09:53:27 PM 39.7700 -103.9819 99° East 377 434 16,400  Level Denver Center
Sun 09:54:29 PM 39.7514 -103.8389 100° East 401 461 17,500 1,306 Climbing Denver Center
Sun 09:55:31 PM 39.7367 -103.7053 98° East 406 467 19,100 1,902 Climbing Denver Center
Sun 09:56:32 PM 39.7242 -103.5261 95° East 411 473 21,400 2,000 Climbing Denver Center
Sun 09:57:34 PM 39.7119 -103.3739 96° East 420 483 23,200 1,403 Climbing Denver Center
Sun 09:58:36 PM 39.6992 -103.2214 96° East 422 486 24,300 1,161 Climbing Denver Center
Sun 09:59:38 PM 39.6853 -103.0650 97° East 436 502 25,600 1,306 Climbing Denver Center
Sun 10:00:40 PM 39.6742 -102.9072 95° East 439 505 27,000 683 Climbing Denver Center
Sun 10:01:41 PM 39.6592 -102.7444 97° East 451 519 27,000  Level Denver Center
Sun 10:02:43 PM 39.6419 -102.5442 96° East 463 533 27,000  Level Denver Center
Sun 10:03:45 PM 39.6275 -102.3861 97° East 463 533 27,000  Level Denver Center
Sun 10:04:47 PM 39.6131 -102.2292 97° East 460 529 27,000  Level Denver Center
Sun 10:05:49 PM 39.5967 -102.0461 97° East 460 529 27,000  Level Denver Center
Sun 10:06:50 PM 39.5831 -101.8875 96° East 460 529 27,000  Level Denver Center
Sun 10:07:52 PM 39.5686 -101.7053 96° East 459 528 27,000  Level Denver Center
Sun 10:09:06 PM 39.5567 -101.5489 96° East 458 527 27,000  Level Denver Center
Sun 10:10:08 PM 39.5439 -101.3406 94° East 456 525 27,000  Level Denver Center
Sun 10:11:22 PM 39.5425 -101.1867 91° East 454 522 27,000  Level Denver Center
Sun 10:12:24 PM 39.5403 -100.9831 91° East 447 514 27,000  Level Denver Center
Sun 10:13:26 PM 39.5369 -100.7925 91° East 468 539 27,000  Level Denver Center
Sun 10:14:28 PM 39.5344 -100.6303 91° East 469 540 27,000  Level Denver Center
Sun 10:15:30 PM 39.5314 -100.4986 92° East 467 537 27,000  Level Denver Center
Sun 10:16:44 PM 39.5275 -100.2872 91° East 462 532 27,000  Level Denver Center
Sun 10:17:46 PM 39.5239 -100.0728 91° East 466 536 27,000  Level Denver Center
Sun 10:18:48 PM 39.5194 -99.8967 92° East 472 543 27,000  Level Denver Center
Sun 10:19:50 PM 39.5153 -99.7267 92° East 472 543 27,000  Level Denver Center
Sun 10:20:52 PM 39.5108 -99.5558 92° East 474 545 27,000  Level Denver Center
Sun 10:23:18 PM 39.4997 -99.1536 92° East 457 526 27,000  Level Kansas City Center
Sun 10:24:20 PM 39.4944 -98.9858 92° East 466 536 27,000  Level Kansas City Center
Sun 10:25:22 PM 39.4900 -98.8183 92° East 466 536 27,000  Level Kansas City Center
Sun 10:26:23 PM 39.4836 -98.6536 93° East 463 533 27,000  Level Kansas City Center
Sun 10:27:22 PM 39.4764 -98.4544 93° East 463 533 27,000  Level Kansas City Center
Sun 10:28:24 PM 39.4711 -98.2919 92° East 460 529 27,000  Level Kansas City Center
Sun 10:29:25 PM 39.4633 -98.1325 94° East 460 529 27,000  Level Kansas City Center
Sun 10:30:26 PM 39.4578 -97.9758 93° East 459 528 27,000  Level Kansas City Center
Sun 10:31:28 PM 39.4514 -97.8028 93° East 456 525 27,000  Level Kansas City Center
Sun 10:32:30 PM 39.4439 -97.6408 93° East 453 521 27,000  Level Kansas City Center
Sun 10:33:30 PM 39.4375 -97.4842 93° East 453 521 27,000  Level Kansas City Center
Sun 10:34:31 PM 39.4311 -97.3039 93° East 453 521 27,000  Level Kansas City Center
Sun 10:35:35 PM 39.4231 -97.1506 94° East 451 519 27,000  Level Kansas City Center
Sun 10:36:36 PM 39.4144 -96.9722 94° East 450 518 27,000  Level Kansas City Center
Sun 10:37:35 PM 39.4078 -96.8183 93° East 450 518 27,000  Level Kansas City Center
Sun 10:38:38 PM 39.3994 -96.6658 94° East 449 517 27,000  Level Kansas City Center
Sun 10:39:39 PM 39.3908 -96.4872 94° East 448 516 27,000  Level Kansas City Center
Sun 10:40:39 PM 39.3833 -96.3419 94° East 447 514 27,000  Level Kansas City Center
Sun 10:41:42 PM 39.3731 -96.1522 94° East 447 514 27,000  Level Kansas City Center
Sun 10:42:44 PM 39.3650 -96.0019 94° East 447 514 27,000  Level Kansas City Center
Sun 10:43:45 PM 39.3558 -95.8497 94° East 443 510 27,000  Level Kansas City Center
Sun 10:44:46 PM 39.3453 -95.6736 94° East 441 507 27,000  Level Kansas City Center
Sun 10:45:47 PM 39.3358 -95.5228 95° East 439 505 27,000  Level Kansas City Center
Sun 10:46:48 PM 39.3256 -95.3508 94° East 440 506 27,000  Level Kansas City Center
Sun 10:47:48 PM 39.3158 -95.1867 94° East 441 507 27,000  Level Kansas City Center
Sun 10:48:50 PM 39.3039 -95.0336 96° East 444 511 27,000  Level Kansas City Center
Sun 10:49:51 PM 39.2936 -94.8750 95° East 455 524 27,000  Level Kansas City Center
Sun 10:50:51 PM 39.2689 -94.6914 100° East 467 537 27,000  Level Kansas City Center
Sun 10:51:55 PM 39.2239 -94.5397 111° Southeast 472 543 27,000  Level Kansas City Center
Sun 10:52:55 PM 39.1767 -94.3894 112° Southeast 475 547 27,000  Level Kansas City Center
Sun 10:53:57 PM 39.1314 -94.2144 108° East 462 532 27,000  Level Kansas City Center
Sun 10:54:58 PM 39.1114 -94.0597 99° East 456 525 27,000  Level Kansas City Center
Sun 10:55:59 PM 39.0908 -93.9056 100° East 456 525 27,000  Level Kansas City Center
Sun 10:57:01 PM 39.0656 -93.7244 100° East 458 527 27,000  Level Kansas City Center
Sun 10:58:02 PM 39.0442 -93.5703 100° East 458 527 27,000 -50 Level Kansas City Center
Sun 10:59:00 PM 39.0200 -93.3967 100° East 458 527 26,900 -393 Descending Kansas City Center
Sun 11:00:04 PM 38.9983 -93.2364 100° East 443 510 26,200 -726 Descending Kansas City Center
Sun 11:01:04 PM 38.9753 -93.0761 100° East 448 516 25,400 -836 Descending Kansas City Center
Sun 11:02:06 PM 38.9528 -92.9136 100° East 455 524 24,500 -689 Descending Kansas City Center
Sun 11:03:06 PM 38.9292 -92.7544 101° East 455 524 24,000 -244 Descending Kansas City Center
Sun 11:04:09 PM 38.9072 -92.6025 100° East 441 507 24,000  Level Kansas City Center
Sun 11:05:09 PM 38.8847 -92.4497 101° East 436 502 24,000 -149 Level Kansas City Center
Sun 11:06:10 PM 38.8625 -92.2969 101° East 436 502 23,700 -1,180 Descending Kansas City Center
Sun 11:07:11 PM 38.8406 -92.1444 100° East 434 499 21,600 -2,195 Descending Kansas City Center
Sun 11:08:13 PM 38.8175 -91.9956 101° East 425 489 19,200 -2,049 Descending Kansas City Center
Sun 11:09:14 PM 38.7958 -91.8506 101° East 416 479 17,400 -1,770 Descending Kansas City Center
Sun 11:10:15 PM 38.7742 -91.7122 101° East 399 459 15,600 -1,600 Descending Kansas City Center
Sun 11:11:14 PM 38.7544 -91.5900 102° East 383 441 14,200 -1,475 Descending Kansas City Center
Sun 11:12:17 PM 38.7314 -91.4394 101° East 367 422 12,600 -1,248 Descending Kansas City Center
Sun 11:13:19 PM 38.7106 -91.3156 102° East 360 414 11,600 -787 Descending Kansas City Center
Sun 11:14:19 PM 38.6931 -91.1972 101° East 348 400 11,000 -639 Descending Kansas City Center
Sun 11:15:21 PM 38.7094 -91.0869 79° East 320 368 10,300 -927 Descending Kansas City Center
Sun 11:16:22 PM 38.7333 -90.9944 72° East 284 327 9,100 -1,475 Descending Kansas City Center
Sun 11:17:23 PM 38.7544 -90.9044 73° East 268 308 7,300 -1,736 Descending Kansas City Center
Sun 11:18:23 PM 38.7758 -90.8156 73° East 264 304 5,600 -1,623 Descending Kansas City Center
Sun 11:19:25 PM 38.7986 -90.7322 71° East 255 293 4,000 -1,024 Descending Kansas City Center
Sun 11:20:26 PM 38.8175 -90.6575 72° East 236 272 3,500 -492 Descending Kansas City Center
Sun 11:21:27 PM 38.8314 -90.5986 73° East 194 223 3,000 -248 Descending Kansas City Center
Sun 11:22:27 PM 38.8242 -90.5417 99° East 187 215 3,000 -350 Level Kansas City Center
Sun 11:23:27 PM 38.7992 -90.4900 122° Southeast 181 208 2,300 -732 Descending Kansas City Center
Sun 11:24:30 PM 38.7786 -90.4481 122° Southeast 158 182 1,500 -780 Descending Kansas City Center
Sun 11:25:30 PM 38.7586 -90.4050 121° Southeast 146 168 700 -800 Descending Kansas City Center

Login

Don't have an account? Register now (free) for customized features, flight alerts, and more!